Time,TemperatureF,DewpointF,PressureIn,WindDirection,WindDirectionDegrees,WindSpeedMPH,WindSpeedGustMPH,Humidity,HourlyPrecipIn,Conditions,Clouds,dailyrainin,SolarRadiationWatts/m^2,SoftwareType,DateUTC
2013-10-07 00:00:00,53.0,46.3,29.94,NW,320,1.0,2.0,78,0.00,RA,RA,0.00,0.0,WeatherDisplay:10.37,2013-10-07 05:00:00,
2013-10-07 00:10:00,52.4,46.5,29.93,NW,315,0.0,0.0,80,0.00,CLR,CLR,0.00,0.0,WeatherDisplay:10.37,2013-10-07 05:10:00,
2013-10-07 00:20:00,51.3,46.0,29.93,NW,315,0.0,0.0,82,0.00,CLR,CLR,0.00,0.0,WeatherDisplay:10.37,2013-10-07 05:20:00,
2013-10-07 00:30:00,50.6,46.3,29.93,NW,315,0.0,1.0,85,0.00,CLR,CLR,0.00,0.0,WeatherDisplay:10.37,2013-10-07 05:30:00,
2013-10-07 00:40:00,50.1,46.1,29.93,NNW,333,0.0,1.0,86,0.00,CLR,CLR,0.00,0.0,WeatherDisplay:10.37,2013-10-07 05:40:00,
2013-10-07 00:50:00,50.4,45.5,29.93,SE,132,0.0,2.0,83,0.00,CLR,CLR,0.00,0.0,WeatherDisplay:10.37,2013-10-07 05:50:00,
2013-10-07 01:00:00,50.3,45.3,29.93,SE,136,0.0,1.0,83,0.00,CLR,CLR,0.00,0.0,WeatherDisplay:10.37,2013-10-07 06:00:00,
2013-10-07 01:10:00,50.0,45.0,29.93,SE,136,0.0,1.0,83,0.00,CLR,CLR,0.00,0.0,WeatherDisplay:10.37,2013-10-07 06:10:00,
2013-10-07 01:20:00,49.9,44.9,29.92,SE,136,0.0,0.0,83,0.00,CLR,CLR,0.00,0.0,WeatherDisplay:10.37,2013-10-07 06:20:00,
2013-10-07 01:30:00,49.8,45.2,29.92,SE,136,0.0,1.0,84,0.00,CLR,CLR,0.00,0.0,WeatherDisplay:10.37,2013-10-07 06:30:00,
2013-10-07 01:40:00,49.7,45.4,29.92,SE,136,0.0,0.0,85,0.00,CLR,CLR,0.00,0.0,WeatherDisplay:10.37,2013-10-07 06:40:00,
2013-10-07 01:50:00,49.4,45.1,29.92,SE,136,0.0,0.0,85,0.00,CLR,CLR,0.00,0.0,WeatherDisplay:10.37,2013-10-07 06:50:00,
2013-10-07 02:00:00,49.4,45.4,29.92,SE,136,0.0,1.0,86,0.00,CLR,CLR,0.00,0.0,WeatherDisplay:10.37,2013-10-07 07:00:00,
2013-10-07 02:10:00,49.1,45.4,29.92,SE,136,0.0,1.0,87,0.00,CLR,CLR,0.00,0.0,WeatherDisplay:10.37,2013-10-07 07:10:00,
2013-10-07 02:20:00,48.6,45.2,29.92,SE,136,0.0,1.0,88,0.00,CLR,CLR,0.00,0.0,WeatherDisplay:10.37,2013-10-07 07:20:00,
2013-10-07 02:30:00,48.4,45.3,29.92,SE,136,0.0,0.0,89,0.00,CLR,CLR,0.00,0.0,WeatherDisplay:10.37,2013-10-07 07:30:00,
2013-10-07 02:40:00,48.0,45.2,29.92,SE,136,0.0,1.0,90,0.00,CLR,CLR,0.00,0.0,WeatherDisplay:10.37,2013-10-07 07:40:00,
2013-10-07 02:50:00,47.9,45.4,29.92,SE,139,0.0,1.0,91,0.00,CLR,CLR,0.00,0.0,WeatherDisplay:10.37,2013-10-07 07:50:00,
2013-10-07 03:00:00,47.8,45.6,29.91,SE,146,0.0,1.0,92,0.00,CLR,CLR,0.00,0.0,WeatherDisplay:10.37,2013-10-07 08:00:00,
2013-10-07 03:10:00,47.7,45.8,29.91,SE,146,0.0,1.0,93,0.00,CLR,CLR,0.00,0.0,WeatherDisplay:10.37,2013-10-07 08:10:00,
2013-10-07 03:20:00,47.6,45.9,29.91,SSE,153,0.0,1.0,94,0.00,CLR,CLR,0.00,0.0,WeatherDisplay:10.37,2013-10-07 08:20:00,
2013-10-07 03:30:00,47.3,45.7,29.91,SSE,154,0.0,0.0,94,0.00,CLR,CLR,0.00,0.0,WeatherDisplay:10.37,2013-10-07 08:30:00,
2013-10-07 03:40:00,47.1,45.5,29.91,SSE,153,0.0,0.0,94,0.00,CLR,CLR,0.00,0.0,WeatherDisplay:10.37,2013-10-07 08:40:00,
2013-10-07 03:50:00,46.9,45.5,29.91,SSE,153,0.0,0.0,95,0.00,CLR,CLR,0.00,0.0,WeatherDisplay:10.37,2013-10-07 08:50:00,
2013-10-07 04:00:00,46.5,45.2,29.91,SSE,153,0.0,0.0,95,0.00,CLR,CLR,0.00,0.0,WeatherDisplay:10.37,2013-10-07 09:00:00,
2013-10-07 04:10:00,46.5,45.1,29.92,SSE,153,0.0,0.0,95,0.00,CLR,CLR,0.00,0.0,WeatherDisplay:10.37,2013-10-07 09:10:00,
2013-10-07 04:20:00,46.3,44.9,29.92,SSE,160,0.0,1.0,95,0.00,CLR,CLR,0.00,0.0,WeatherDisplay:10.37,2013-10-07 09:20:00,
2013-10-07 04:30:00,46.6,45.5,29.92,WNW,283,0.0,1.0,96,0.00,CLR,CLR,0.00,0.0,WeatherDisplay:10.37,2013-10-07 09:30:00,
2013-10-07 04:40:00,46.7,45.6,29.93,WNW,283,0.0,1.0,96,0.00,CLR,CLR,0.00,0.0,WeatherDisplay:10.37,2013-10-07 09:40:00,
2013-10-07 04:50:00,47.0,45.9,29.93,WSW,258,0.0,1.0,96,0.00,CLR,CLR,0.00,0.0,WeatherDisplay:10.37,2013-10-07 09:50:00,
2013-10-07 05:00:00,47.0,45.6,29.94,SW,221,0.0,1.0,95,0.00,CLR,CLR,0.00,0.0,WeatherDisplay:10.37,2013-10-07 10:00:00,
2013-10-07 05:10:00,46.9,45.5,29.94,SW,221,0.0,0.0,95,0.00,CLR,CLR,0.00,0.0,WeatherDisplay:10.37,2013-10-07 10:10:00,
2013-10-07 05:20:00,46.8,45.4,29.94,SW,221,0.0,0.0,95,0.00,CLR,CLR,0.00,0.0,WeatherDisplay:10.37,2013-10-07 10:20:00,
2013-10-07 05:30:00,46.6,45.2,29.95,SW,221,0.0,0.0,95,0.00,CLR,CLR,0.00,0.0,WeatherDisplay:10.37,2013-10-07 10:30:00,
2013-10-07 05:40:00,46.5,45.1,29.95,SW,221,0.0,0.0,95,0.00,CLR,CLR,0.00,0.0,WeatherDisplay:10.37,2013-10-07 10:40:00,
2013-10-07 05:50:00,46.6,45.2,29.96,SW,221,0.0,0.0,95,0.00,CLR,CLR,0.00,0.0,WeatherDisplay:10.37,2013-10-07 10:50:00,
2013-10-07 06:00:00,46.8,45.4,29.96,SW,232,0.0,1.0,95,0.00,CLR,CLR,0.00,0.0,WeatherDisplay:10.37,2013-10-07 11:00:00,
2013-10-07 06:10:00,47.0,45.6,29.96,WNW,301,0.0,1.0,95,0.00,CLR,CLR,0.00,0.0,WeatherDisplay:10.37,2013-10-07 11:10:00,
2013-10-07 06:20:00,47.7,46.0,29.97,NW,316,2.0,4.0,94,0.00,CLR,CLR,0.00,0.0,WeatherDisplay:10.37,2013-10-07 11:20:00,
2013-10-07 06:30:00,48.7,46.2,29.97,NNW,330,0.0,3.0,91,0.00,CLR,CLR,0.00,0.0,WeatherDisplay:10.37,2013-10-07 11:30:00,
2013-10-07 06:40:00,48.8,46.0,29.98,WNW,300,0.0,3.0,90,0.00,CLR,CLR,0.00,0.0,WeatherDisplay:10.37,2013-10-07 11:40:00,
2013-10-07 06:50:00,48.5,45.7,29.98,WNW,295,0.0,1.0,90,0.00,CLR,CLR,0.00,0.0,WeatherDisplay:10.37,2013-10-07 11:50:00,
2013-10-07 07:00:00,48.3,45.5,29.98,WNW,297,0.0,1.0,90,0.00,CLR,CLR,0.00,0.0,WeatherDisplay:10.37,2013-10-07 12:00:00,
2013-10-07 07:10:00,47.9,45.4,29.98,WNW,298,0.0,1.0,91,0.00,CLR,CLR,0.00,0.0,WeatherDisplay:10.37,2013-10-07 12:10:00,
2013-10-07 07:20:00,47.6,45.4,29.99,WNW,296,0.0,1.0,92,0.00,CLR,CLR,0.00,0.0,WeatherDisplay:10.37,2013-10-07 12:20:00,
2013-10-07 07:30:00,48.3,46.1,29.99,WNW,303,1.0,2.0,92,0.00,CLR,CLR,0.00,0.0,WeatherDisplay:10.37,2013-10-07 12:30:00,
2013-10-07 07:40:00,49.7,46.5,29.99,NW,324,2.0,4.0,89,0.00,CLR,CLR,0.00,0.0,WeatherDisplay:10.37,2013-10-07 12:40:00,
2013-10-07 07:50:00,50.5,46.8,30.00,NNW,332,3.0,5.0,87,0.00,CLR,CLR,0.00,0.0,WeatherDisplay:10.37,2013-10-07 12:50:00,
2013-10-07 08:00:00,51.2,47.1,30.00,NW,324,0.0,3.0,86,0.00,CLR,CLR,0.00,0.0,WeatherDisplay:10.37,2013-10-07 13:00:00,
2013-10-07 08:10:00,51.8,47.5,30.00,NNE,15,0.0,4.0,85,0.00,CLR,CLR,0.00,0.0,WeatherDisplay:10.37,2013-10-07 13:10:00,
2013-10-07 08:20:00,52.7,47.7,30.00,North,8,2.0,5.0,83,0.00,CLR,CLR,0.00,0.0,WeatherDisplay:10.37,2013-10-07 13:20:00,
2013-10-07 08:30:00,53.2,47.5,30.01,NNW,346,3.0,6.0,81,0.00,CLR,CLR,0.00,0.0,WeatherDisplay:10.37,2013-10-07 13:30:00,
2013-10-07 08:40:00,53.7,47.7,30.01,NNW,345,3.0,7.0,80,0.00,CLR,CLR,0.00,0.0,WeatherDisplay:10.37,2013-10-07 13:40:00,
2013-10-07 08:50:00,54.3,48.3,30.02,NW,319,3.0,5.0,80,0.00,CLR,CLR,0.00,0.0,WeatherDisplay:10.37,2013-10-07 13:50:00,
2013-10-07 09:00:00,54.7,48.3,30.02,NNW,342,5.0,9.0,79,0.00,CLR,CLR,0.00,0.0,WeatherDisplay:10.37,2013-10-07 14:00:00,
2013-10-07 09:10:00,55.0,48.2,30.03,NNW,346,5.0,8.0,78,0.00,CLR,CLR,0.00,0.0,WeatherDisplay:10.37,2013-10-07 14:10:00,
2013-10-07 09:20:00,55.4,48.3,30.03,NNW,339,6.0,9.0,77,0.00,CLR,CLR,0.00,0.0,WeatherDisplay:10.37,2013-10-07 14:20:00,
2013-10-07 09:30:00,56.0,48.5,30.03,North,358,7.0,9.0,76,0.00,CLR,CLR,0.00,0.0,WeatherDisplay:10.37,2013-10-07 14:30:00,
2013-10-07 09:40:00,56.3,48.8,30.03,NNE,20,5.0,12.0,76,0.00,CLR,CLR,0.00,0.0,WeatherDisplay:10.37,2013-10-07 14:40:00,
2013-10-07 09:50:00,56.7,48.5,30.04,North,9,7.0,12.0,74,0.00,CLR,CLR,0.00,0.0,WeatherDisplay:10.37,2013-10-07 14:50:00,
2013-10-07 10:00:00,57.1,48.5,30.04,NNE,24,7.0,14.0,73,0.00,FEW,FEW,0.00,0.0,WeatherDisplay:10.37,2013-10-07 15:00:00,
2013-10-07 10:10:00,57.8,48.8,30.04,NNE,20,5.0,10.0,72,0.00,FEW,FEW,0.00,0.0,WeatherDisplay:10.37,2013-10-07 15:10:00,
2013-10-07 10:20:00,58.0,48.3,30.05,NNE,27,6.0,9.0,70,0.00,BKN,BKN,0.00,0.0,WeatherDisplay:10.37,2013-10-07 15:20:00,
2013-10-07 10:30:00,58.2,48.5,30.05,North,11,5.0,10.0,70,0.00,BKN,BKN,0.00,0.0,WeatherDisplay:10.37,2013-10-07 15:30:00,
2013-10-07 10:40:00,58.4,48.3,30.05,North,356,7.0,10.0,69,0.00,BKN,BKN,0.00,0.0,WeatherDisplay:10.37,2013-10-07 15:40:00,
2013-10-07 10:50:00,58.7,48.6,30.05,North,8,3.0,12.0,69,0.00,BKN,BKN,0.00,0.0,WeatherDisplay:10.37,2013-10-07 15:50:00,
2013-10-07 11:00:00,59.3,48.8,30.05,NNE,32,6.0,10.0,68,0.00,FEW,FEW,0.00,0.0,WeatherDisplay:10.37,2013-10-07 16:00:00,
2013-10-07 11:10:00,59.6,48.7,30.05,NNE,17,5.0,12.0,67,0.00,FEW,FEW,0.00,0.0,WeatherDisplay:10.37,2013-10-07 16:10:00,
2013-10-07 11:20:00,60.5,48.7,30.05,North,3,6.0,12.0,65,0.00,BKN,BKN,0.00,0.0,WeatherDisplay:10.37,2013-10-07 16:20:00,
2013-10-07 11:30:00,61.1,48.9,30.05,NE,34,6.0,10.0,64,0.00,BKN,BKN,0.00,0.0,WeatherDisplay:10.37,2013-10-07 16:30:00,
2013-10-07 11:40:00,61.6,48.9,30.06,NNE,19,5.0,10.0,63,0.00,BKN,BKN,0.00,0.0,WeatherDisplay:10.37,2013-10-07 16:40:00,
2013-10-07 11:50:00,61.6,48.5,30.06,NNW,338,3.0,12.0,62,0.00,BKN,BKN,0.00,0.0,WeatherDisplay:10.37,2013-10-07 16:50:00,
2013-10-07 12:00:00,61.6,48.9,30.06,NNW,332,7.0,12.0,63,0.00,SCT,SCT,0.00,0.0,WeatherDisplay:10.37,2013-10-07 17:00:00,
2013-10-07 12:10:00,62.1,49.8,30.05,North,7,2.0,10.0,64,0.00,SCT,SCT,0.00,0.0,WeatherDisplay:10.37,2013-10-07 17:10:00,
2013-10-07 12:20:00,62.3,49.1,30.05,North,356,3.0,10.0,62,0.00,FEW,FEW,0.00,0.0,WeatherDisplay:10.37,2013-10-07 17:20:00,
2013-10-07 12:30:00,63.2,49.5,30.05,NW,316,3.0,9.0,61,0.00,FEW,FEW,0.00,0.0,WeatherDisplay:10.37,2013-10-07 17:30:00,
2013-10-07 12:40:00,63.3,49.2,30.05,NNW,327,1.0,9.0,60,0.00,CLR,CLR,0.00,0.0,WeatherDisplay:10.37,2013-10-07 17:40:00,
2013-10-07 12:50:00,63.7,49.5,30.05,NW,320,6.0,8.0,60,0.00,CLR,CLR,0.00,0.0,WeatherDisplay:10.37,2013-10-07 17:50:00,
2013-10-07 13:00:00,63.9,48.8,30.05,NNW,330,3.0,10.0,58,0.00,FEW,FEW,0.00,0.0,WeatherDisplay:10.37,2013-10-07 18:00:00,
2013-10-07 13:10:00,64.1,49.9,30.04,NW,309,1.0,8.0,60,0.00,FEW,FEW,0.00,0.0,WeatherDisplay:10.37,2013-10-07 18:10:00,
2013-10-07 13:20:00,64.7,49.6,30.04,NNE,21,6.0,10.0,58,0.00,CLR,CLR,0.00,0.0,WeatherDisplay:10.37,2013-10-07 18:20:00,
2013-10-07 13:30:00,64.9,49.3,30.04,NNW,330,6.0,9.0,57,0.00,CLR,CLR,0.00,0.0,WeatherDisplay:10.37,2013-10-07 18:30:00,
2013-10-07 13:40:00,65.2,48.6,30.04,NW,326,5.0,12.0,55,0.00,CLR,CLR,0.00,0.0,WeatherDisplay:10.37,2013-10-07 18:40:00,
2013-10-07 13:50:00,65.5,48.9,30.03,NNW,336,3.0,13.0,55,0.00,CLR,CLR,0.00,0.0,WeatherDisplay:10.37,2013-10-07 18:50:00,
2013-10-07 14:00:00,65.6,48.5,30.03,NW,325,6.0,12.0,54,0.00,CLR,CLR,0.00,0.0,WeatherDisplay:10.37,2013-10-07 19:00:00,
2013-10-07 14:10:00,65.7,48.6,30.03,North,350,3.0,10.0,54,0.00,CLR,CLR,0.00,0.0,WeatherDisplay:10.37,2013-10-07 19:10:00,
2013-10-07 14:20:00,65.5,48.9,30.03,NNW,333,3.0,12.0,55,0.00,CLR,CLR,0.00,0.0,WeatherDisplay:10.37,2013-10-07 19:20:00,
2013-10-07 14:30:00,66.1,49.0,30.03,NNW,335,7.0,13.0,54,0.00,CLR,CLR,0.00,0.0,WeatherDisplay:10.37,2013-10-07 19:30:00,
2013-10-07 14:40:00,66.4,47.7,30.03,NW,324,2.0,13.0,51,0.00,CLR,CLR,0.00,0.0,WeatherDisplay:10.37,2013-10-07 19:40:00,
2013-10-07 14:50:00,66.9,48.7,30.03,North,2,8.0,14.0,52,0.00,CLR,CLR,0.00,0.0,WeatherDisplay:10.37,2013-10-07 19:50:00,
2013-10-07 15:00:00,66.8,48.0,30.03,North,6,6.0,10.0,51,0.00,CLR,CLR,0.00,0.0,WeatherDisplay:10.37,2013-10-07 20:00:00,
2013-10-07 15:10:00,66.9,48.7,30.03,North,354,3.0,12.0,52,0.00,CLR,CLR,0.00,0.0,WeatherDisplay:10.37,2013-10-07 20:10:00,
2013-10-07 15:20:00,66.8,48.1,30.03,NNW,343,6.0,13.0,51,0.00,CLR,CLR,0.00,0.0,WeatherDisplay:10.37,2013-10-07 20:20:00,
2013-10-07 15:30:00,66.9,48.7,30.03,North,3,6.0,12.0,52,0.00,CLR,CLR,0.00,0.0,WeatherDisplay:10.37,2013-10-07 20:30:00,
2013-10-07 15:40:00,66.9,48.2,30.03,NNW,345,8.0,12.0,51,0.00,CLR,CLR,0.00,0.0,WeatherDisplay:10.37,2013-10-07 20:40:00,
2013-10-07 15:50:00,67.1,48.4,30.03,NW,325,7.0,13.0,51,0.00,CLR,CLR,0.00,0.0,WeatherDisplay:10.37,2013-10-07 20:50:00,
2013-10-07 16:00:00,67.0,49.3,30.03,NNW,339,6.0,13.0,53,0.00,CLR,CLR,0.00,0.0,WeatherDisplay:10.37,2013-10-07 21:00:00,
2013-10-07 16:10:00,67.1,49.9,30.03,North,356,3.0,12.0,54,0.00,CLR,CLR,0.00,0.0,WeatherDisplay:10.37,2013-10-07 21:10:00,
2013-10-07 16:20:00,67.0,49.8,30.03,NNW,333,6.0,12.0,54,0.00,CLR,CLR,0.00,0.0,WeatherDisplay:10.37,2013-10-07 21:20:00,
2013-10-07 16:30:00,67.4,49.2,30.02,NNW,327,10.0,14.0,52,0.00,CLR,CLR,0.00,0.0,WeatherDisplay:10.37,2013-10-07 21:30:00,
2013-10-07 16:40:00,67.1,49.4,30.02,North,356,2.0,13.0,53,0.00,CLR,CLR,0.00,0.0,WeatherDisplay:10.37,2013-10-07 21:40:00,
2013-10-07 16:50:00,67.2,50.0,30.02,North,359,3.0,12.0,54,0.00,CLR,CLR,0.00,0.0,WeatherDisplay:10.37,2013-10-07 21:50:00,
2013-10-07 17:00:00,67.3,50.1,30.03,NNE,19,3.0,9.0,54,0.00,CLR,CLR,0.00,0.0,WeatherDisplay:10.37,2013-10-07 22:00:00,
2013-10-07 17:10:00,67.1,49.9,30.03,North,7,5.0,12.0,54,0.00,CLR,CLR,0.00,0.0,WeatherDisplay:10.37,2013-10-07 22:10:00,
2013-10-07 17:20:00,66.8,50.1,30.03,North,359,6.0,10.0,55,0.00,CLR,CLR,0.00,0.0,WeatherDisplay:10.37,2013-10-07 22:20:00,
2013-10-07 17:30:00,66.6,49.9,30.03,North,352,6.0,12.0,55,0.00,CLR,CLR,0.00,0.0,WeatherDisplay:10.37,2013-10-07 22:30:00,
2013-10-07 17:40:00,66.4,50.2,30.03,NNW,333,7.0,10.0,56,0.00,CLR,CLR,0.00,0.0,WeatherDisplay:10.37,2013-10-07 22:40:00,
2013-10-07 17:50:00,66.1,50.4,30.04,NNW,337,6.0,12.0,57,0.00,CLR,CLR,0.00,0.0,WeatherDisplay:10.37,2013-10-07 22:50:00,
2013-10-07 18:00:00,66.0,50.3,30.04,NNW,335,5.0,10.0,57,0.00,CLR,CLR,0.00,0.0,WeatherDisplay:10.37,2013-10-07 23:00:00,
2013-10-07 18:10:00,65.7,51.0,30.04,North,0,5.0,8.0,59,0.00,CLR,CLR,0.00,0.0,WeatherDisplay:10.37,2013-10-07 23:10:00,
2013-10-07 18:20:00,65.3,50.6,30.04,North,352,5.0,7.0,59,0.00,CLR,CLR,0.00,0.0,WeatherDisplay:10.37,2013-10-07 23:20:00,
2013-10-07 18:30:00,64.6,51.2,30.04,North,352,2.0,6.0,62,0.00,CLR,CLR,0.00,0.0,WeatherDisplay:10.37,2013-10-07 23:30:00,
2013-10-07 18:40:00,63.8,51.0,30.05,NNW,348,2.0,6.0,63,0.00,CLR,CLR,0.00,0.0,WeatherDisplay:10.37,2013-10-07 23:40:00,
2013-10-07 18:50:00,63.2,50.8,30.05,North,350,2.0,4.0,64,0.00,CLR,CLR,0.00,0.0,WeatherDisplay:10.37,2013-10-07 23:50:00,
2013-10-07 19:00:00,62.7,51.2,30.05,North,11,1.0,5.0,66,0.00,CLR,CLR,0.00,0.0,WeatherDisplay:10.37,2013-10-08 00:00:00,
2013-10-07 19:10:00,62.2,51.1,30.05,North,353,1.0,3.0,67,0.00,CLR,CLR,0.00,0.0,WeatherDisplay:10.37,2013-10-08 00:10:00,
2013-10-07 19:20:00,61.8,51.1,30.05,North,10,1.0,2.0,68,0.00,CLR,CLR,0.00,0.0,WeatherDisplay:10.37,2013-10-08 00:20:00,
2013-10-07 19:30:00,61.4,51.1,30.06,North,7,0.0,2.0,69,0.00,CLR,CLR,0.00,0.0,WeatherDisplay:10.37,2013-10-08 00:30:00,
2013-10-07 19:40:00,60.8,51.0,30.06,NNE,23,0.0,1.0,70,0.00,CLR,CLR,0.00,0.0,WeatherDisplay:10.37,2013-10-08 00:40:00,
2013-10-07 19:50:00,60.5,51.1,30.06,North,7,1.0,3.0,71,0.00,CLR,CLR,0.00,0.0,WeatherDisplay:10.37,2013-10-08 00:50:00,
2013-10-07 20:00:00,60.2,50.8,30.07,NNE,25,0.0,2.0,71,0.00,CLR,CLR,0.00,0.0,WeatherDisplay:10.37,2013-10-08 01:00:00,
2013-10-07 20:10:00,59.8,51.1,30.07,NE,41,0.0,1.0,73,0.00,CLR,CLR,0.00,0.0,WeatherDisplay:10.37,2013-10-08 01:10:00,
2013-10-07 20:20:00,58.9,51.0,30.08,NE,41,0.0,2.0,75,0.00,CLR,CLR,0.00,0.0,WeatherDisplay:10.37,2013-10-08 01:20:00,
2013-10-07 20:30:00,58.2,51.0,30.08,NE,37,0.0,1.0,77,0.00,CLR,CLR,0.00,0.0,WeatherDisplay:10.37,2013-10-08 01:30:00,
2013-10-07 20:40:00,58.2,51.0,30.08,NNE,17,1.0,3.0,77,0.00,CLR,CLR,0.00,0.0,WeatherDisplay:10.37,2013-10-08 01:40:00,
2013-10-07 20:50:00,58.2,51.0,30.09,NNE,33,0.0,3.0,77,0.00,CLR,CLR,0.00,0.0,WeatherDisplay:10.37,2013-10-08 01:50:00,
2013-10-07 21:00:00,57.9,50.7,30.09,NE,44,1.0,2.0,77,0.00,CLR,CLR,0.00,0.0,WeatherDisplay:10.37,2013-10-08 02:00:00,
2013-10-07 21:10:00,57.8,50.6,30.09,NE,39,0.0,2.0,77,0.00,CLR,CLR,0.00,0.0,WeatherDisplay:10.37,2013-10-08 02:10:00,
2013-10-07 21:20:00,57.4,50.6,30.09,North,358,0.0,1.0,78,0.00,CLR,CLR,0.00,0.0,WeatherDisplay:10.37,2013-10-08 02:20:00,
2013-10-07 21:30:00,57.3,50.5,30.09,NE,39,1.0,3.0,78,0.00,CLR,CLR,0.00,0.0,WeatherDisplay:10.37,2013-10-08 02:30:00,
2013-10-07 21:40:00,57.1,50.6,30.10,NNE,30,0.0,2.0,79,0.00,CLR,CLR,0.00,0.0,WeatherDisplay:10.37,2013-10-08 02:40:00,
2013-10-07 21:50:00,56.6,50.2,30.10,NNE,33,0.0,1.0,79,0.00,CLR,CLR,0.00,0.0,WeatherDisplay:10.37,2013-10-08 02:50:00,
2013-10-07 22:00:00,56.3,50.2,30.10,NNE,33,1.0,2.0,80,0.00,CLR,CLR,0.00,0.0,WeatherDisplay:10.37,2013-10-08 03:00:00,
2013-10-07 22:10:00,55.9,50.2,30.10,NE,34,0.0,1.0,81,0.00,CLR,CLR,0.00,0.0,WeatherDisplay:10.37,2013-10-08 03:10:00,
2013-10-07 22:20:00,55.8,49.7,30.10,NE,36,0.0,1.0,80,0.00,CLR,CLR,0.00,0.0,WeatherDisplay:10.37,2013-10-08 03:20:00,
2013-10-07 22:30:00,55.6,49.9,30.11,NNE,33,0.0,1.0,81,0.00,CLR,CLR,0.00,0.0,WeatherDisplay:10.37,2013-10-08 03:30:00,
2013-10-07 22:40:00,55.3,49.6,30.11,NNE,33,0.0,1.0,81,0.00,CLR,CLR,0.00,0.0,WeatherDisplay:10.37,2013-10-08 03:40:00,
2013-10-07 22:50:00,54.0,49.3,30.11,NNE,33,0.0,0.0,84,0.00,CLR,CLR,0.00,0.0,WeatherDisplay:10.37,2013-10-08 03:50:00,
2013-10-07 23:00:00,53.3,49.5,30.11,NNE,32,0.0,0.0,87,0.00,CLR,CLR,0.00,0.0,WeatherDisplay:10.37,2013-10-08 04:00:00,
2013-10-07 23:10:00,52.2,49.1,30.11,West,275,0.0,1.0,89,0.00,CLR,CLR,0.00,0.0,WeatherDisplay:10.37,2013-10-08 04:10:00,
2013-10-07 23:20:00,51.6,48.8,30.11,West,273,0.0,0.0,90,0.00,CLR,CLR,0.00,0.0,WeatherDisplay:10.37,2013-10-08 04:20:00,
2013-10-07 23:30:00,52.0,49.2,30.11,West,274,0.0,0.0,90,0.00,CLR,CLR,0.00,0.0,WeatherDisplay:10.37,2013-10-08 04:30:00,
2013-10-07 23:40:00,52.3,49.2,30.10,NW,308,0.0,2.0,89,0.00,CLR,CLR,0.00,0.0,WeatherDisplay:10.37,2013-10-08 04:40:00,
2013-10-07 23:50:00,52.7,49.2,30.10,NE,45,0.0,2.0,88,0.00,CLR,CLR,0.00,0.0,WeatherDisplay:10.37,2013-10-08 04:50:00,